Toba — V7KR8 — position and weather

sailwx.info

Track history (hours):
 
Tides and Currents Weather Stations Pressure Air Temp Water Temp Dewpoint Dewpoint Depression Visibility Wind Speed Wind Dir Waves Ship Positions

Toba

Last reported at 2017-Aug-22 22:09 UTC. Time now 2017-Sep-24 10:41 UTC.
Position N 25°37' W 016°20'.
Warning: this ship's position is 32 days out of date.

Length 229 m; draft 14.5 m.

Type: Cargo ship. MMSI: 538006220.

Date/timePositionNaut miles runAvg speedWind from/ knotsBaromVisibWave heightAir tempDewpointWater temp
2017-Aug-22 22:09N 25°37' W 016°20'2813.5
2017-Aug-22 20:03N 26°03' W 016°08'112.9
2017-Aug-22 19:57N 26°04' W 016°07'912.8
2017-Aug-22 19:15N 26°13' W 016°03'413.0
2017-Aug-22 18:56N 26°16' W 016°02'2113.2
2017-Aug-22 17:23N 26°36' W 015°53'2014.0
2017-Aug-22 15:57N 26°54' W 015°44'1413.4
2017-Aug-22 14:53N 27°07' W 015°38'1513.2
2017-Aug-22 13:46N 27°21' W 015°32'513.1
2017-Aug-22 13:24N 27°25' W 015°30'613.7
2017-Aug-22 12:59N 27°30' W 015°27'713.5
2017-Aug-22 12:29N 27°37' W 015°24'913.0
2017-Aug-22 11:47N 27°45' W 015°20'412.7
2017-Aug-22 11:30N 27°48' W 015°19'612.6
2017-Aug-22 11:00N 27°55' W 015°18'612.6
2017-Aug-22 10:30N 28°01' W 015°19'511.1
2017-Aug-22 10:00N 28°06' W 015°20'1 2.1
2017-Aug-22 09:30N 28°07' W 015°21'1 2.3
2017-Aug-22 09:00N 28°08' W 015°21'2 4.6
2017-Aug-22 08:30N 28°10' W 015°21'3 6.9
2017-Aug-22 08:00N 28°14' W 015°20'612.2
2017-Aug-22 07:30N 28°20' W 015°19'713.3
2017-Aug-22 07:00N 28°27' W 015°19'613.1
2017-Aug-22 06:30N 28°33' W 015°18'613.0
2017-Aug-22 06:00N 28°39' W 015°17'713.3
2017-Aug-22 05:30N 28°46' W 015°16'713.6
2017-Aug-22 05:00N 28°53' W 015°15'713.8
2017-Aug-22 04:30N 28°59' W 015°14'713.7
2017-Aug-22 04:00N 29°06' W 015°12'713.7
2017-Aug-22 03:30N 29°13' W 015°11'713.6
2017-Aug-22 03:00N 29°20' W 015°10'713.4
2017-Aug-22 02:29N 29°27' W 015°09'613.4
2017-Aug-22 02:00N 29°33' W 015°09'613.1
2017-Aug-22 01:30N 29°40' W 015°08'612.9
2017-Aug-22 01:00N 29°46' W 015°07'613.0
2017-Aug-22 00:30N 29°52' W 015°06'713.0
2017-Aug-22 00:00N 29°59' W 015°04'713.1
2017-Aug-21 23:30N 30°06' W 015°03'713.2
2017-Aug-21 23:00N 30°12' W 015°03'612.9
2017-Aug-21 22:30N 30°18' W 015°02'612.7
2017-Aug-21 22:00N 30°25' W 015°01'612.7
2017-Aug-21 21:30N 30°31' W 014°60'713.0
2017-Aug-21 21:00N 30°37' W 014°59'713.3
2017-Aug-21 20:30N 30°44' W 014°58'713.1
2017-Aug-21 20:00N 30°50' W 014°57'713.1
2017-Aug-21 19:30N 30°57' W 014°56'713.1
2017-Aug-21 19:00N 31°04' W 014°55'613.0
2017-Aug-21 18:30N 31°10' W 014°54'713.1
2017-Aug-21 18:00N 31°17' W 014°53'813.1
2017-Aug-21 17:23N 31°25' W 014°52'513.1
2017-Aug-21 17:00N 31°30' W 014°51'713.3
2017-Aug-21 16:30N 31°36' W 014°50'713.3
2017-Aug-21 16:00N 31°43' W 014°49'713.2
2017-Aug-21 15:28N 31°50' W 014°48'613.0
2017-Aug-21 15:00N 31°56' W 014°47'713.1
2017-Aug-21 14:30N 32°02' W 014°46'713.1
2017-Aug-21 14:00N 32°09' W 014°45'713.0
2017-Aug-21 13:30N 32°15' W 014°44'713.3
2017-Aug-21 13:00N 32°22' W 014°43'713.4
2017-Aug-21 12:30N 32°28' W 014°42'713.2
2017-Aug-21 12:00N 32°35' W 014°41'713.0
2017-Aug-21 11:30N 32°41' W 014°40'612.9
2017-Aug-21 11:00N 32°48' W 014°39'613.0
2017-Aug-21 10:30N 32°54' W 014°38'613.0
2017-Aug-21 10:00N 33°01' W 014°37'612.9
2017-Aug-21 09:30N 33°07' W 014°36'612.8
2017-Aug-21 09:00N 33°13' W 014°35'713.1
2017-Aug-21 08:28N 33°20' W 014°34'613.0
2017-Aug-21 07:58N 33°27' W 014°33'613.1
2017-Aug-21 07:29N 33°33' W 014°32'612.9
2017-Aug-21 07:00N 33°39' W 014°31'612.9
2017-Aug-21 06:30N 33°46' W 014°30'612.8
2017-Aug-21 06:00N 33°52' W 014°29'812.7
2017-Aug-21 05:24N 33°60' W 014°27'1112.6
2017-Aug-21 04:34N 34°10' W 014°25'112.7
2017-Aug-21 04:30N 34°11' W 014°25'612.7
2017-Aug-21 04:00N 34°17' W 014°24'612.8
2017-Aug-21 03:30N 34°23' W 014°24'812.8
2017-Aug-21 02:51N 34°32' W 014°22'412.9
2017-Aug-21 02:30N 34°36' W 014°22'712.9
2017-Aug-21 02:00N 34°43' W 014°21'612.8
2017-Aug-21 01:31N 34°49' W 014°20'712.9
2017-Aug-21 01:00N 34°55' W 014°19'612.6
2017-Aug-21 00:30N 35°02' W 014°18'712.9
2017-Aug-20 23:58N 35°08' W 014°16'612.6
2017-Aug-20 23:30N 35°14' W 014°15'612.5
2017-Aug-20 23:00N 35°20' W 014°15'613.0
2017-Aug-20 22:31N 35°27' W 014°14'713.1
2017-Aug-20 22:00N 35°33' W 014°13'612.9
2017-Aug-20 21:30N 35°40' W 014°11'612.9
2017-Aug-20 21:00N 35°46' W 014°10'713.1
2017-Aug-20 20:30N 35°53' W 014°09'612.9
2017-Aug-20 20:00N 35°59' W 014°08'1012.7
2017-Aug-20 19:15N 36°09' W 014°07'312.8
2017-Aug-20 19:00N 36°12' W 014°07'1413.0
2017-Aug-20 17:55N 36°26' W 014°04'612.9
2017-Aug-20 17:25N 36°32' W 014°03'512.8
2017-Aug-20 17:00N 36°37' W 014°02'1112.9
2017-Aug-20 16:09N 36°48' W 014°00'212.7
2017-Aug-20 15:59N 36°50' W 014°00'1112.8
2017-Aug-20 15:05N 37°02' W 013°58'112.7
2017-Aug-20 15:00N 37°03' W 013°58'1412.6
2017-Aug-20 13:52N 37°17' W 013°56'612.5
2017-Aug-20 13:21N 37°23' W 013°55'1412.5
2017-Aug-20 12:14N 37°37' W 013°53'312.5
2017-Aug-20 12:00N 37°40' W 013°52'1212.3
2017-Aug-20 11:02N 37°52' W 013°50'1912.4
2017-Aug-20 09:30N 38°11' W 013°47'912.4
2017-Aug-20 08:46N 38°20' W 013°45'312.4
2017-Aug-20 08:29N 38°23' W 013°45'1312.9
2017-Aug-20 07:27N 38°36' W 013°42'612.8
2017-Aug-20 07:00N 38°42' W 013°41'4112.4
2017-Aug-20 03:44N 39°22' W 013°35'412.6
2017-Aug-20 03:27N 39°26' W 013°35'612.6
2017-Aug-20 03:00N 39°31' W 013°34'612.8
2017-Aug-20 02:30N 39°38' W 013°32'612.6
2017-Aug-20 02:00N 39°44' W 013°31'612.4
2017-Aug-20 01:30N 39°50' W 013°30'612.6
2017-Aug-20 01:00N 39°56' W 013°29'612.4
2017-Aug-20 00:30N 40°03' W 013°28'612.5
2017-Aug-20 00:00N 40°09' W 013°27'612.5
2017-Aug-19 23:30N 40°15' W 013°26'612.4
2017-Aug-19 23:00N 40°21' W 013°25'612.7
2017-Aug-19 22:30N 40°27' W 013°24'4012.8
2017-Aug-19 19:24N 41°07' W 013°17'512.9
2017-Aug-19 18:59N 41°12' W 013°16'612.8
2017-Aug-19 18:30N 41°18' W 013°15'612.8
2017-Aug-19 18:00N 41°24' W 013°14'712.9
2017-Aug-19 17:26N 41°32' W 013°12'613.2
2017-Aug-19 17:00N 41°37' W 013°12'  
2017-Aug-17 05:46N 53°39' W 011°14'710.9
2017-Aug-17 05:08N 53°46' W 011°13'310.9
2017-Aug-17 04:52N 53°49' W 011°13'410.9
2017-Aug-17 04:30N 53°53' W 011°13'1010.7
2017-Aug-17 03:35N 54°03' W 011°12'1111.0
2017-Aug-17 02:34N 54°14' W 011°12'211.1
2017-Aug-17 02:25N 54°16' W 011°12'711.1
2017-Aug-17 01:50N 54°22' W 011°11'411.2
2017-Aug-17 01:27N 54°26' W 011°11'811.1
2017-Aug-17 00:45N 54°34' W 011°11'311.0
2017-Aug-17 00:29N 54°37' W 011°10'  
Track history (hours):
 
Tides and Currents Weather Stations Pressure Air Temp Water Temp Dewpoint Dewpoint Depression Visibility Wind Speed Wind Dir Waves Ship Positions

Toba

Last reported at 2017-Aug-22 22:09 UTC. Time now 2017-Sep-24 10:41 UTC.
Position N 25°37' W 016°20'.
Warning: this ship's position is 32 days out of date.

Length 229 m; draft 14.5 m.

Type: Cargo ship. MMSI: 538006220.

Date/timePositionNaut miles runAvg speedWind from/ knotsBaromVisibWave heightAir tempDewpointWater temp
2017-Aug-22 22:09N 25°37' W 016°20'2813.5
2017-Aug-22 20:03N 26°03' W 016°08'112.9
2017-Aug-22 19:57N 26°04' W 016°07'912.8
2017-Aug-22 19:15N 26°13' W 016°03'413.0
2017-Aug-22 18:56N 26°16' W 016°02'2113.2
2017-Aug-22 17:23N 26°36' W 015°53'2014.0
2017-Aug-22 15:57N 26°54' W 015°44'1413.4
2017-Aug-22 14:53N 27°07' W 015°38'1513.2
2017-Aug-22 13:46N 27°21' W 015°32'513.1
2017-Aug-22 13:24N 27°25' W 015°30'613.7
2017-Aug-22 12:59N 27°30' W 015°27'713.5
2017-Aug-22 12:29N 27°37' W 015°24'913.0
2017-Aug-22 11:47N 27°45' W 015°20'412.7
2017-Aug-22 11:30N 27°48' W 015°19'612.6
2017-Aug-22 11:00N 27°55' W 015°18'612.6
2017-Aug-22 10:30N 28°01' W 015°19'511.1
2017-Aug-22 10:00N 28°06' W 015°20'1 2.1
2017-Aug-22 09:30N 28°07' W 015°21'1 2.3
2017-Aug-22 09:00N 28°08' W 015°21'2 4.6
2017-Aug-22 08:30N 28°10' W 015°21'3 6.9
2017-Aug-22 08:00N 28°14' W 015°20'612.2
2017-Aug-22 07:30N 28°20' W 015°19'713.3
2017-Aug-22 07:00N 28°27' W 015°19'613.1
2017-Aug-22 06:30N 28°33' W 015°18'613.0
2017-Aug-22 06:00N 28°39' W 015°17'713.3
2017-Aug-22 05:30N 28°46' W 015°16'713.6
2017-Aug-22 05:00N 28°53' W 015°15'713.8
2017-Aug-22 04:30N 28°59' W 015°14'713.7
2017-Aug-22 04:00N 29°06' W 015°12'713.7
2017-Aug-22 03:30N 29°13' W 015°11'713.6
2017-Aug-22 03:00N 29°20' W 015°10'713.4
2017-Aug-22 02:29N 29°27' W 015°09'613.4
2017-Aug-22 02:00N 29°33' W 015°09'613.1
2017-Aug-22 01:30N 29°40' W 015°08'612.9
2017-Aug-22 01:00N 29°46' W 015°07'613.0
2017-Aug-22 00:30N 29°52' W 015°06'713.0
2017-Aug-22 00:00N 29°59' W 015°04'713.1
2017-Aug-21 23:30N 30°06' W 015°03'713.2
2017-Aug-21 23:00N 30°12' W 015°03'612.9
2017-Aug-21 22:30N 30°18' W 015°02'612.7
2017-Aug-21 22:00N 30°25' W 015°01'612.7
2017-Aug-21 21:30N 30°31' W 014°60'713.0
2017-Aug-21 21:00N 30°37' W 014°59'713.3
2017-Aug-21 20:30N 30°44' W 014°58'713.1
2017-Aug-21 20:00N 30°50' W 014°57'713.1
2017-Aug-21 19:30N 30°57' W 014°56'713.1
2017-Aug-21 19:00N 31°04' W 014°55'613.0
2017-Aug-21 18:30N 31°10' W 014°54'713.1
2017-Aug-21 18:00N 31°17' W 014°53'813.1
2017-Aug-21 17:23N 31°25' W 014°52'513.1
2017-Aug-21 17:00N 31°30' W 014°51'713.3
2017-Aug-21 16:30N 31°36' W 014°50'713.3
2017-Aug-21 16:00N 31°43' W 014°49'713.2
2017-Aug-21 15:28N 31°50' W 014°48'613.0
2017-Aug-21 15:00N 31°56' W 014°47'713.1
2017-Aug-21 14:30N 32°02' W 014°46'713.1
2017-Aug-21 14:00N 32°09' W 014°45'713.0
2017-Aug-21 13:30N 32°15' W 014°44'713.3
2017-Aug-21 13:00N 32°22' W 014°43'713.4
2017-Aug-21 12:30N 32°28' W 014°42'713.2
2017-Aug-21 12:00N 32°35' W 014°41'713.0
2017-Aug-21 11:30N 32°41' W 014°40'612.9
2017-Aug-21 11:00N 32°48' W 014°39'613.0
2017-Aug-21 10:30N 32°54' W 014°38'613.0
2017-Aug-21 10:00N 33°01' W 014°37'612.9
2017-Aug-21 09:30N 33°07' W 014°36'612.8
2017-Aug-21 09:00N 33°13' W 014°35'713.1
2017-Aug-21 08:28N 33°20' W 014°34'613.0
2017-Aug-21 07:58N 33°27' W 014°33'613.1
2017-Aug-21 07:29N 33°33' W 014°32'612.9
2017-Aug-21 07:00N 33°39' W 014°31'612.9
2017-Aug-21 06:30N 33°46' W 014°30'612.8
2017-Aug-21 06:00N 33°52' W 014°29'812.7
2017-Aug-21 05:24N 33°60' W 014°27'1112.6
2017-Aug-21 04:34N 34°10' W 014°25'112.7
2017-Aug-21 04:30N 34°11' W 014°25'612.7
2017-Aug-21 04:00N 34°17' W 014°24'612.8
2017-Aug-21 03:30N 34°23' W 014°24'812.8
2017-Aug-21 02:51N 34°32' W 014°22'412.9
2017-Aug-21 02:30N 34°36' W 014°22'712.9
2017-Aug-21 02:00N 34°43' W 014°21'612.8
2017-Aug-21 01:31N 34°49' W 014°20'712.9
2017-Aug-21 01:00N 34°55' W 014°19'612.6
2017-Aug-21 00:30N 35°02' W 014°18'712.9
2017-Aug-20 23:58N 35°08' W 014°16'612.6
2017-Aug-20 23:30N 35°14' W 014°15'612.5
2017-Aug-20 23:00N 35°20' W 014°15'613.0
2017-Aug-20 22:31N 35°27' W 014°14'713.1
2017-Aug-20 22:00N 35°33' W 014°13'612.9
2017-Aug-20 21:30N 35°40' W 014°11'612.9
2017-Aug-20 21:00N 35°46' W 014°10'713.1
2017-Aug-20 20:30N 35°53' W 014°09'612.9
2017-Aug-20 20:00N 35°59' W 014°08'1012.7
2017-Aug-20 19:15N 36°09' W 014°07'312.8
2017-Aug-20 19:00N 36°12' W 014°07'1413.0
2017-Aug-20 17:55N 36°26' W 014°04'612.9
2017-Aug-20 17:25N 36°32' W 014°03'512.8
2017-Aug-20 17:00N 36°37' W 014°02'1112.9
2017-Aug-20 16:09N 36°48' W 014°00'212.7
2017-Aug-20 15:59N 36°50' W 014°00'1112.8
2017-Aug-20 15:05N 37°02' W 013°58'112.7
2017-Aug-20 15:00N 37°03' W 013°58'1412.6
2017-Aug-20 13:52N 37°17' W 013°56'612.5
2017-Aug-20 13:21N 37°23' W 013°55'1412.5
2017-Aug-20 12:14N 37°37' W 013°53'312.5
2017-Aug-20 12:00N 37°40' W 013°52'1212.3
2017-Aug-20 11:02N 37°52' W 013°50'1912.4
2017-Aug-20 09:30N 38°11' W 013°47'912.4
2017-Aug-20 08:46N 38°20' W 013°45'312.4
2017-Aug-20 08:29N 38°23' W 013°45'1312.9
2017-Aug-20 07:27N 38°36' W 013°42'612.8
2017-Aug-20 07:00N 38°42' W 013°41'4112.4
2017-Aug-20 03:44N 39°22' W 013°35'412.6
2017-Aug-20 03:27N 39°26' W 013°35'612.6
2017-Aug-20 03:00N 39°31' W 013°34'612.8
2017-Aug-20 02:30N 39°38' W 013°32'612.6
2017-Aug-20 02:00N 39°44' W 013°31'612.4
2017-Aug-20 01:30N 39°50' W 013°30'612.6
2017-Aug-20 01:00N 39°56' W 013°29'612.4
2017-Aug-20 00:30N 40°03' W 013°28'612.5
2017-Aug-20 00:00N 40°09' W 013°27'612.5
2017-Aug-19 23:30N 40°15' W 013°26'612.4
2017-Aug-19 23:00N 40°21' W 013°25'612.7
2017-Aug-19 22:30N 40°27' W 013°24'4012.8
2017-Aug-19 19:24N 41°07' W 013°17'512.9
2017-Aug-19 18:59N 41°12' W 013°16'612.8
2017-Aug-19 18:30N 41°18' W 013°15'612.8
2017-Aug-19 18:00N 41°24' W 013°14'712.9
2017-Aug-19 17:26N 41°32' W 013°12'613.2
2017-Aug-19 17:00N 41°37' W 013°12'  
2017-Aug-17 05:46N 53°39' W 011°14'710.9
2017-Aug-17 05:08N 53°46' W 011°13'310.9
2017-Aug-17 04:52N 53°49' W 011°13'410.9
2017-Aug-17 04:30N 53°53' W 011°13'1010.7
2017-Aug-17 03:35N 54°03' W 011°12'1111.0
2017-Aug-17 02:34N 54°14' W 011°12'211.1
2017-Aug-17 02:25N 54°16' W 011°12'711.1
2017-Aug-17 01:50N 54°22' W 011°11'411.2
2017-Aug-17 01:27N 54°26' W 011°11'811.1
2017-Aug-17 00:45N 54°34' W 011°11'311.0
2017-Aug-17 00:29N 54°37' W 011°10'  

Dump ship's entire track history